Helston, United Kingdom
Current Conditions -  °F | °C
As of 10:50 AM on Thursday 23 Oct 2014 (Local Time) from EGDR Reporting Station
Haze Haze  
Wind Chill: 57°   Ceiling: 200
Heat Index: 57°   Visibility: 1.8mi
Dew Point: 57°   Wind: 16mph
Humidity: 100%   Direction: 220°SW
Pressure: 30.12"   Gusts: NA
Location:  50.08°N, 5.2°W
Report Text: EGDR 230950Z 22014KT 3000 BR FEW001 BKN002 BKN005 14/14 Q1020 REDZ AMB TEMPO 1500 DZ BR SCT001 RED
Loading
Personal Weather Stations






























Interactive Weather Map New forecast layout! Learn more

10-Day Weather Forecast

Advertisements
Track Severe Weather on mobile